Time;durP1;ratioP1;P1;durP2;ratioP2;P2;SDS_P1;SDS_P2;PMS_P1;PMS_P2;Temp;Humidity;BMP_temperature;BMP_pressure;BME280_temperature;BME280_humidity;BME280_pressure;Samples;Min_cycle;Max_cycle;Signal;HPM_P1;HPM_P2
2022/05/09 00:01:56;;;;;;;9.13;2.85;;;;;;;;;;5062090;28;20180;-67
2022/05/09 00:04:22;;;;;;;12.32;3.35;;;;;;;;;;5066047;28;20294;-67
2022/05/09 00:06:48;;;;;;;12.55;3.15;;;;;;;;;;5054200;28;20265;-68
2022/05/09 00:09:15;;;;;;;7.40;2.90;;;;;;;;;;5060618;28;20298;-66
2022/05/09 00:11:40;;;;;;;13.43;2.93;;;;;;;;;;5062901;28;20188;-66
2022/05/09 00:14:06;;;;;;;11.50;3.30;;;;;;;;;;5051878;28;20181;-66
2022/05/09 00:16:34;;;;;;;12.70;2.93;;;;;;;;;;5064803;28;20263;-67
2022/05/09 00:19:03;;;;;;;13.47;2.90;;;;;;;;;;5059585;28;20203;-68
2022/05/09 00:21:31;;;;;;;9.23;3.00;;;;;;;;;;5058407;28;20656;-66
2022/05/09 00:23:57;;;;;;;12.13;3.27;;;;;;;;;;5059809;28;20230;-67
2022/05/09 00:26:22;;;;;;;11.67;3.03;;;;;;;;;;5063166;28;20189;-67
2022/05/09 00:28:48;;;;;;;13.47;3.57;;;;;;;;;;5059674;28;20177;-67
2022/05/09 00:31:13;;;;;;;11.30;3.30;;;;;;;;;;5063147;28;20242;-67
2022/05/09 00:33:39;;;;;;;13.60;2.90;;;;;;;;;;5057264;28;20181;-67
2022/05/09 00:36:05;;;;;;;8.13;3.03;;;;;;;;;;5053605;28;20182;-67
2022/05/09 00:38:30;;;;;;;12.27;3.60;;;;;;;;;;5051121;28;20278;-67
2022/05/09 00:43:41;;;;;;;18.07;3.40;;;;;;;;;;5054849;28;20242;-67
2022/05/09 00:46:08;;;;;;;7.90;3.10;;;;;;;;;;5060945;28;20181;-67
2022/05/09 00:48:34;;;;;;;11.20;3.17;;;;;;;;;;5064875;28;20288;-67
2022/05/09 00:51:01;;;;;;;11.17;3.23;;;;;;;;;;5061099;28;20291;-66
2022/05/09 00:53:29;;;;;;;10.70;3.33;;;;;;;;;;5064102;28;20612;-66
2022/05/09 00:55:58;;;;;;;9.17;3.23;;;;;;;;;;5062582;28;20269;-66
2022/05/09 00:58:40;;;;;;;10.60;3.67;;;;;;;;;;5062911;28;20177;-66
2022/05/09 01:01:09;;;;;;;10.40;3.27;;;;;;;;;;5060061;28;20169;-66
2022/05/09 01:03:42;;;;;;;12.10;3.63;;;;;;;;;;5058158;28;20544;-66
2022/05/09 01:06:07;;;;;;;11.67;3.63;;;;;;;;;;5060394;28;20264;-66
2022/05/09 01:08:33;;;;;;;11.93;3.60;;;;;;;;;;5063400;28;20332;-66
2022/05/09 01:10:59;;;;;;;13.77;3.40;;;;;;;;;;5049851;28;20209;-66
2022/05/09 01:13:29;;;;;;;14.20;4.27;;;;;;;;;;5053765;28;20185;-66
2022/05/09 01:15:54;;;;;;;13.20;3.63;;;;;;;;;;5060693;28;20193;-67
2022/05/09 01:18:21;;;;;;;13.87;3.87;;;;;;;;;;5058370;28;20249;-67
2022/05/09 01:20:47;;;;;;;11.77;3.67;;;;;;;;;;5064385;28;20678;-67
2022/05/09 01:23:12;;;;;;;14.03;3.67;;;;;;;;;;5065648;28;20177;-67
2022/05/09 01:25:39;;;;;;;13.10;4.00;;;;;;;;;;5080767;28;20461;-67
2022/05/09 01:28:05;;;;;;;13.80;4.37;;;;;;;;;;5064877;28;20265;-67
2022/05/09 01:31:01;;;;;;;10.93;4.37;;;;;;;;;;5064842;28;20574;-66
2022/05/09 01:33:39;;;;;;;11.60;3.70;;;;;;;;;;5064236;28;20186;-66
2022/05/09 01:36:15;;;;;;;12.30;3.47;;;;;;;;;;5065236;28;20321;-66
2022/05/09 01:38:47;;;;;;;15.80;3.80;;;;;;;;;;5065593;28;20199;-66
2022/05/09 01:41:13;;;;;;;14.23;3.57;;;;;;;;;;5067375;28;20185;-66
2022/05/09 01:43:41;;;;;;;14.83;3.80;;;;;;;;;;5064500;28;20279;-67
2022/05/09 01:46:13;;;;;;;12.20;3.73;;;;;;;;;;5065863;28;20184;-66
2022/05/09 01:51:23;;;;;;;11.93;3.97;;;;;;;;;;5065487;28;20215;-67
2022/05/09 01:53:52;;;;;;;12.03;3.63;;;;;;;;;;5065705;28;20271;-67
2022/05/09 01:56:19;;;;;;;10.77;3.53;;;;;;;;;;5058849;28;20267;-66
2022/05/09 01:58:45;;;;;;;15.57;3.90;;;;;;;;;;5059721;28;20239;-67
2022/05/09 02:01:10;;;;;;;12.23;4.17;;;;;;;;;;5064211;28;20180;-66
2022/05/09 02:03:36;;;;;;;16.50;4.97;;;;;;;;;;5056942;28;20205;-67
2022/05/09 02:06:02;;;;;;;9.57;3.80;;;;;;;;;;5058060;28;20177;-67
2022/05/09 02:08:28;;;;;;;12.83;4.13;;;;;;;;;;5064155;28;20243;-66
2022/05/09 02:10:53;;;;;;;21.73;4.90;;;;;;;;;;5048463;28;20212;-66
2022/05/09 02:13:20;;;;;;;15.63;3.83;;;;;;;;;;5066536;28;20536;-67
2022/05/09 02:15:45;;;;;;;15.43;4.20;;;;;;;;;;5061261;28;20176;-67
2022/05/09 02:18:10;;;;;;;14.90;4.47;;;;;;;;;;5061141;28;20192;-67
2022/05/09 02:20:36;;;;;;;18.47;3.90;;;;;;;;;;5055853;28;20545;-66
2022/05/09 02:23:01;;;;;;;13.73;4.77;;;;;;;;;;5062799;28;20653;-66
2022/05/09 02:25:29;;;;;;;15.77;4.00;;;;;;;;;;5066198;28;20184;-66
2022/05/09 02:27:56;;;;;;;11.70;4.53;;;;;;;;;;5067960;28;20185;-67
2022/05/09 02:30:21;;;;;;;13.40;4.43;;;;;;;;;;5077482;28;20196;-66
2022/05/09 02:32:47;;;;;;;18.03;4.40;;;;;;;;;;5060456;28;20192;-66
2022/05/09 02:35:13;;;;;;;12.03;3.90;;;;;;;;;;5058138;28;20177;-67
2022/05/09 02:37:38;;;;;;;15.87;4.80;;;;;;;;;;5063523;28;20180;-67
2022/05/09 02:40:04;;;;;;;18.20;5.30;;;;;;;;;;5058371;28;20188;-67
2022/05/09 02:42:30;;;;;;;13.23;3.90;;;;;;;;;;5063277;28;20302;-66
2022/05/09 02:44:55;;;;;;;15.77;4.27;;;;;;;;;;5063862;28;20275;-67
2022/05/09 02:47:21;;;;;;;13.10;4.20;;;;;;;;;;5064173;28;20191;-67
2022/05/09 02:49:46;;;;;;;16.13;4.40;;;;;;;;;;5057613;28;20203;-66
2022/05/09 02:52:12;;;;;;;10.83;4.40;;;;;;;;;;5066726;28;20184;-66
2022/05/09 02:54:38;;;;;;;13.07;4.47;;;;;;;;;;5061211;28;20551;-66
2022/05/09 02:57:04;;;;;;;23.97;4.83;;;;;;;;;;5063497;28;20220;-67
2022/05/09 02:59:30;;;;;;;15.93;4.27;;;;;;;;;;5066207;28;20204;-67
2022/05/09 03:01:55;;;;;;;19.63;4.60;;;;;;;;;;5063332;28;20192;-67
2022/05/09 03:04:39;;;;;;;20.23;4.80;;;;;;;;;;5064253;28;20192;-66
2022/05/09 03:07:13;;;;;;;14.77;4.57;;;;;;;;;;5067145;28;20189;-66
2022/05/09 03:09:41;;;;;;;13.83;4.70;;;;;;;;;;5063690;28;20224;-66
2022/05/09 03:12:07;;;;;;;16.57;5.07;;;;;;;;;;5065778;28;20553;-66
2022/05/09 03:14:33;;;;;;;12.23;4.63;;;;;;;;;;5062983;28;20192;-66
2022/05/09 03:16:58;;;;;;;14.87;4.87;;;;;;;;;;5058967;28;20196;-67
2022/05/09 03:19:26;;;;;;;14.47;4.93;;;;;;;;;;5063388;28;20189;-67
2022/05/09 03:21:52;;;;;;;12.67;4.90;;;;;;;;;;5061511;28;20585;-67
2022/05/09 03:24:19;;;;;;;14.03;5.50;;;;;;;;;;5067107;28;20184;-67
2022/05/09 03:26:45;;;;;;;13.90;4.93;;;;;;;;;;5055933;28;20196;-67
2022/05/09 03:29:10;;;;;;;10.23;4.70;;;;;;;;;;5058523;28;20182;-67
2022/05/09 03:31:36;;;;;;;13.57;4.80;;;;;;;;;;5058189;28;20206;-66
2022/05/09 03:34:01;;;;;;;15.80;4.87;;;;;;;;;;5064904;28;20185;-67
2022/05/09 03:36:27;;;;;;;16.30;4.80;;;;;;;;;;5063680;28;20276;-66
2022/05/09 03:38:52;;;;;;;17.33;5.10;;;;;;;;;;5059952;28;20250;-66
2022/05/09 03:41:18;;;;;;;12.67;4.93;;;;;;;;;;5054927;28;20318;-67
2022/05/09 03:43:43;;;;;;;12.73;5.30;;;;;;;;;;5057174;28;20181;-67
2022/05/09 03:46:09;;;;;;;10.80;4.83;;;;;;;;;;5061283;28;20180;-66
2022/05/09 03:48:34;;;;;;;19.20;5.27;;;;;;;;;;5056666;28;20739;-66
2022/05/09 03:51:01;;;;;;;16.30;5.33;;;;;;;;;;5064558;28;20326;-66
2022/05/09 03:53:27;;;;;;;15.07;5.23;;;;;;;;;;5063336;28;20514;-67
2022/05/09 03:55:52;;;;;;;19.00;5.07;;;;;;;;;;5063875;28;20177;-66
2022/05/09 03:58:18;;;;;;;13.97;5.20;;;;;;;;;;5065192;28;20207;-66
2022/05/09 04:00:44;;;;;;;15.37;5.40;;;;;;;;;;5057994;28;20247;-66
2022/05/09 04:03:09;;;;;;;16.00;5.60;;;;;;;;;;5059993;28;20644;-66
2022/05/09 04:05:35;;;;;;;17.37;5.30;;;;;;;;;;5060980;28;20192;-66
2022/05/09 04:08:03;;;;;;;13.63;5.40;;;;;;;;;;5065610;28;20599;-66
2022/05/09 04:10:31;;;;;;;11.37;5.33;;;;;;;;;;5064492;28;20203;-66
2022/05/09 04:12:58;;;;;;;18.70;5.70;;;;;;;;;;5059264;28;20224;-66
2022/05/09 04:18:08;;;;;;;12.00;5.10;;;;;;;;;;5061383;28;20191;-66
2022/05/09 04:20:35;;;;;;;17.13;5.90;;;;;;;;;;5060457;28;20193;-66
2022/05/09 04:23:01;;;;;;;18.00;5.77;;;;;;;;;;5057984;28;20180;-66
2022/05/09 04:25:29;;;;;;;12.03;5.13;;;;;;;;;;5063069;28;20670;-66
2022/05/09 04:27:56;;;;;;;14.60;5.23;;;;;;;;;;5064713;28;20215;-66
2022/05/09 04:30:23;;;;;;;16.23;5.73;;;;;;;;;;5079666;28;20296;-66
2022/05/09 04:32:49;;;;;;;15.57;5.73;;;;;;;;;;5060395;28;20250;-66
2022/05/09 04:35:19;;;;;;;16.53;6.03;;;;;;;;;;5062976;28;20655;-66
2022/05/09 04:37:48;;;;;;;19.23;5.47;;;;;;;;;;5063158;28;20276;-66
2022/05/09 04:40:20;;;;;;;14.30;5.30;;;;;;;;;;5054797;28;20528;-66
2022/05/09 04:42:46;;;;;;;15.50;5.83;;;;;;;;;;5059711;28;20264;-66
2022/05/09 04:45:13;;;;;;;16.80;5.57;;;;;;;;;;5057707;28;20272;-66
2022/05/09 04:47:39;;;;;;;19.43;5.87;;;;;;;;;;5062196;28;20776;-66
2022/05/09 04:50:06;;;;;;;16.17;6.30;;;;;;;;;;5052909;28;20304;-66
2022/05/09 04:52:31;;;;;;;20.70;6.63;;;;;;;;;;5059731;28;20254;-66
2022/05/09 04:54:57;;;;;;;16.87;5.80;;;;;;;;;;5064952;28;20263;-66
2022/05/09 04:57:22;;;;;;;13.97;6.10;;;;;;;;;;5067953;28;20239;-66
2022/05/09 04:59:47;;;;;;;23.27;6.40;;;;;;;;;;5065754;28;20602;-67
2022/05/09 05:02:13;;;;;;;14.10;5.60;;;;;;;;;;5062617;28;20196;-66
2022/05/09 05:04:39;;;;;;;16.67;5.73;;;;;;;;;;5069506;28;20344;-66
2022/05/09 05:07:05;;;;;;;18.23;6.60;;;;;;;;;;5066697;28;20640;-66
2022/05/09 05:09:31;;;;;;;21.23;6.93;;;;;;;;;;5066543;28;20232;-68
2022/05/09 05:11:56;;;;;;;20.10;6.37;;;;;;;;;;5066120;28;20193;-67
2022/05/09 05:14:22;;;;;;;15.10;6.83;;;;;;;;;;5067540;28;20597;-67
2022/05/09 05:16:59;;;;;;;18.50;6.97;;;;;;;;;;5058939;28;20185;-67
2022/05/09 05:19:31;;;;;;;14.97;6.67;;;;;;;;;;5055864;28;20259;-67
2022/05/09 05:21:57;;;;;;;15.67;6.37;;;;;;;;;;5063848;28;20181;-67
2022/05/09 05:24:23;;;;;;;18.73;6.13;;;;;;;;;;5067367;28;20177;-67
2022/05/09 05:26:48;;;;;;;17.30;6.40;;;;;;;;;;5068322;28;20266;-67
2022/05/09 05:29:15;;;;;;;21.90;7.17;;;;;;;;;;5068753;28;20215;-67
2022/05/09 05:31:40;;;;;;;22.43;7.67;;;;;;;;;;5068603;28;20409;-67
2022/05/09 05:34:06;;;;;;;23.33;6.80;;;;;;;;;;5064937;28;20189;-67
2022/05/09 05:36:31;;;;;;;19.47;6.57;;;;;;;;;;5066716;28;20259;-67
2022/05/09 05:38:56;;;;;;;21.17;6.50;;;;;;;;;;5067435;28;20182;-67
2022/05/09 05:41:25;;;;;;;21.03;7.10;;;;;;;;;;5069276;28;20192;-67
2022/05/09 05:43:51;;;;;;;21.17;6.80;;;;;;;;;;5068080;28;20363;-67
2022/05/09 05:46:16;;;;;;;21.27;6.20;;;;;;;;;;5064610;28;20826;-66
2022/05/09 05:48:41;;;;;;;20.73;6.93;;;;;;;;;;5066862;28;20296;-66
2022/05/09 05:51:07;;;;;;;20.00;6.77;;;;;;;;;;5066809;28;20226;-66
2022/05/09 05:53:34;;;;;;;18.93;6.30;;;;;;;;;;5068144;28;20204;-66
2022/05/09 05:56:00;;;;;;;14.82;6.80;;;;;;;;;;5059649;28;20411;-66
2022/05/09 05:58:27;;;;;;;15.77;6.20;;;;;;;;;;5060875;28;20654;-66
2022/05/09 06:00:53;;;;;;;20.17;7.13;;;;;;;;;;5065195;28;20164;-66
2022/05/09 06:03:20;;;;;;;18.07;6.50;;;;;;;;;;5065152;28;20169;-66
2022/05/09 06:05:46;;;;;;;23.42;6.03;;;;;;;;;;5058980;28;20205;-66
2022/05/09 06:08:11;;;;;;;19.60;6.07;;;;;;;;;;5064209;28;20208;-66
2022/05/09 06:10:36;;;;;;;21.00;7.55;;;;;;;;;;5067532;28;20193;-67
2022/05/09 06:13:04;;;;;;;17.13;6.03;;;;;;;;;;5064682;28;20203;-67
2022/05/09 06:15:32;;;;;;;14.17;6.10;;;;;;;;;;5066139;28;20192;-67
2022/05/09 06:17:59;;;;;;;13.52;6.07;;;;;;;;;;5065271;28;20527;-66
2022/05/09 06:20:25;;;;;;;14.73;5.82;;;;;;;;;;5067090;28;20267;-66
2022/05/09 06:22:54;;;;;;;20.50;6.28;;;;;;;;;;5060892;28;20319;-67
2022/05/09 06:25:20;;;;;;;20.15;6.38;;;;;;;;;;5065193;28;20588;-67
2022/05/09 06:27:47;;;;;;;23.48;6.72;;;;;;;;;;5062705;28;20192;-68
2022/05/09 06:30:14;;;;;;;12.20;5.70;;;;;;;;;;5055436;28;20638;-67
2022/05/09 06:32:40;;;;;;;18.80;6.32;;;;;;;;;;5080551;28;20211;-67
2022/05/09 06:35:10;;;;;;;19.52;6.82;;;;;;;;;;5065023;28;20181;-67
2022/05/09 06:37:36;;;;;;;18.30;7.18;;;;;;;;;;5080772;28;20667;-67
2022/05/09 06:40:03;;;;;;;21.80;6.55;;;;;;;;;;5067049;28;20169;-67
2022/05/09 06:42:29;;;;;;;20.90;6.72;;;;;;;;;;5065414;28;20535;-67
2022/05/09 06:44:55;;;;;;;18.00;6.88;;;;;;;;;;5068656;28;20192;-67
2022/05/09 06:47:21;;;;;;;17.75;5.93;;;;;;;;;;5066059;28;20189;-67
2022/05/09 06:49:46;;;;;;;15.40;5.60;;;;;;;;;;5066693;28;20224;-67
2022/05/09 06:52:11;;;;;;;17.08;6.30;;;;;;;;;;5064261;28;20188;-68
2022/05/09 06:54:37;;;;;;;12.65;6.00;;;;;;;;;;5064757;28;20208;-68
2022/05/09 06:57:02;;;;;;;16.10;6.10;;;;;;;;;;5056287;28;20190;-68
2022/05/09 06:59:31;;;;;;;13.85;5.35;;;;;;;;;;5068402;28;20176;-69
2022/05/09 07:01:56;;;;;;;19.65;5.57;;;;;;;;;;5067153;28;20636;-67
2022/05/09 07:04:21;;;;;;;13.45;5.57;;;;;;;;;;5069031;28;20192;-67
2022/05/09 07:06:47;;;;;;;16.13;5.78;;;;;;;;;;5065711;28;20188;-67
2022/05/09 07:09:15;;;;;;;18.98;6.18;;;;;;;;;;5068643;28;20304;-67
2022/05/09 07:11:40;;;;;;;16.00;5.68;;;;;;;;;;5064760;28;20216;-67
2022/05/09 07:14:07;;;;;;;16.85;5.82;;;;;;;;;;5068831;28;20193;-67
2022/05/09 07:16:32;;;;;;;16.13;5.55;;;;;;;;;;5067787;28;20188;-67
2022/05/09 07:18:58;;;;;;;16.38;5.45;;;;;;;;;;5067629;28;20710;-67
2022/05/09 07:21:24;;;;;;;19.23;5.85;;;;;;;;;;5067899;28;20282;-66
2022/05/09 07:23:50;;;;;;;14.52;5.22;;;;;;;;;;5067274;28;20181;-67
2022/05/09 07:26:15;;;;;;;18.08;6.18;;;;;;;;;;5068845;28;20173;-67
2022/05/09 07:28:42;;;;;;;18.80;6.13;;;;;;;;;;5067878;28;20267;-67
2022/05/09 07:31:08;;;;;;;16.10;5.68;;;;;;;;;;5067691;28;20759;-67
2022/05/09 07:33:34;;;;;;;15.70;5.70;;;;;;;;;;5067811;28;20185;-67
2022/05/09 07:35:59;;;;;;;11.13;5.00;;;;;;;;;;5066995;28;20181;-67
2022/05/09 07:38:25;;;;;;;12.18;4.80;;;;;;;;;;5062648;28;20184;-67
2022/05/09 07:40:51;;;;;;;20.00;5.85;;;;;;;;;;5067361;28;20200;-67
2022/05/09 07:43:19;;;;;;;17.98;6.25;;;;;;;;;;5064676;28;20204;-67
2022/05/09 07:45:47;;;;;;;21.13;6.03;;;;;;;;;;5067659;28;20192;-66
2022/05/09 07:48:13;;;;;;;19.02;5.25;;;;;;;;;;5059532;28;20188;-67
2022/05/09 07:50:40;;;;;;;16.85;4.95;;;;;;;;;;5063641;28;20200;-67
2022/05/09 07:53:12;;;;;;;11.65;5.03;;;;;;;;;;5060041;28;20644;-66
2022/05/09 07:55:39;;;;;;;18.67;5.40;;;;;;;;;;5067974;28;20176;-67
2022/05/09 07:58:05;;;;;;;21.40;5.50;;;;;;;;;;5064353;28;20242;-67
2022/05/09 08:00:30;;;;;;;12.90;5.03;;;;;;;;;;5068111;28;20181;-68
2022/05/09 08:02:56;;;;;;;12.70;5.20;;;;;;;;;;5064083;28;20184;-66
2022/05/09 08:05:22;;;;;;;11.75;4.68;;;;;;;;;;5068092;28;20181;-66
2022/05/09 08:07:48;;;;;;;14.48;5.28;;;;;;;;;;5057836;28;20180;-68
2022/05/09 08:10:15;;;;;;;24.98;6.00;;;;;;;;;;5066427;28;20220;-66
2022/05/09 08:12:40;;;;;;;9.13;4.15;;;;;;;;;;5066368;28;20628;-66
2022/05/09 08:15:08;;;;;;;17.45;4.28;;;;;;;;;;5067637;28;20189;-67
2022/05/09 08:17:33;;;;;;;15.63;5.50;;;;;;;;;;5063518;28;20192;-67
2022/05/09 08:19:59;;;;;;;19.60;5.07;;;;;;;;;;5067482;28;20165;-68
2022/05/09 08:22:28;;;;;;;13.35;4.78;;;;;;;;;;5066872;28;20207;-67
2022/05/09 08:24:57;;;;;;;13.45;4.38;;;;;;;;;;5066461;28;20187;-66
2022/05/09 08:27:23;;;;;;;15.50;4.97;;;;;;;;;;5065033;28;20374;-67
2022/05/09 08:29:51;;;;;;;12.10;4.00;;;;;;;;;;5065830;28;20276;-66
2022/05/09 08:32:16;;;;;;;12.77;4.40;;;;;;;;;;5066371;28;20648;-66
2022/05/09 08:34:42;;;;;;;13.52;3.72;;;;;;;;;;5067083;28;20263;-66
2022/05/09 08:37:07;;;;;;;16.83;4.85;;;;;;;;;;5064366;28;20211;-67
2022/05/09 08:39:32;;;;;;;13.85;3.90;;;;;;;;;;5067119;28;20576;-67
2022/05/09 08:42:03;;;;;;;16.38;4.32;;;;;;;;;;5065547;28;20181;-67
2022/05/09 08:44:51;;;;;;;12.00;3.85;;;;;;;;;;5065609;28;20189;-67
2022/05/09 08:47:33;;;;;;;15.63;4.03;;;;;;;;;;5062721;28;20181;-67
2022/05/09 08:50:25;;;;;;;11.73;3.92;;;;;;;;;;5058034;28;20591;-67
2022/05/09 08:53:05;;;;;;;11.05;3.95;;;;;;;;;;5063838;28;20258;-67
2022/05/09 08:55:36;;;;;;;15.23;3.35;;;;;;;;;;5062981;28;20200;-66
2022/05/09 08:58:25;;;;;;;9.57;4.00;;;;;;;;;;5065994;28;20181;-66
2022/05/09 09:00:52;;;;;;;15.00;4.95;;;;;;;;;;5066308;28;20185;-67
2022/05/09 09:03:38;;;;;;;8.82;3.67;;;;;;;;;;5056289;28;20217;-67
2022/05/09 09:06:45;;;;;;;12.57;3.50;;;;;;;;;;5066774;28;20189;-66
2022/05/09 09:09:46;;;;;;;8.00;3.53;;;;;;;;;;5061251;28;20217;-67
2022/05/09 09:12:21;;;;;;;8.60;3.17;;;;;;;;;;5064049;28;20303;-67
2022/05/09 09:15:07;;;;;;;10.68;3.47;;;;;;;;;;5066889;28;20264;-67
2022/05/09 09:17:57;;;;;;;10.07;3.70;;;;;;;;;;5066733;28;20322;-66
2022/05/09 09:20:27;;;;;;;8.85;2.63;;;;;;;;;;5061172;28;20412;-67
2022/05/09 09:23:14;;;;;;;10.02;3.33;;;;;;;;;;5065311;28;20601;-66
2022/05/09 09:26:01;;;;;;;9.20;3.15;;;;;;;;;;5065764;28;20180;-67
2022/05/09 09:28:47;;;;;;;12.05;3.10;;;;;;;;;;5059024;28;20172;-67
2022/05/09 09:31:16;;;;;;;8.20;2.42;;;;;;;;;;5066403;28;20216;-67
2022/05/09 09:33:52;;;;;;;8.75;2.40;;;;;;;;;;5066105;28;20258;-66
2022/05/09 09:36:18;;;;;;;9.90;2.75;;;;;;;;;;5067206;28;20651;-67
2022/05/09 09:38:53;;;;;;;9.68;2.70;;;;;;;;;;5067866;28;20184;-66
2022/05/09 09:41:30;;;;;;;9.90;2.55;;;;;;;;;;5069152;28;20650;-66
2022/05/09 09:44:05;;;;;;;14.02;2.88;;;;;;;;;;5070031;28;20188;-67
2022/05/09 09:46:31;;;;;;;6.53;2.00;;;;;;;;;;5071199;28;20617;-67
2022/05/09 09:49:08;;;;;;;10.50;2.50;;;;;;;;;;5068345;28;20195;-67
2022/05/09 09:51:45;;;;;;;7.50;2.85;;;;;;;;;;5069991;28;20201;-67
2022/05/09 09:54:12;;;;;;;11.38;2.85;;;;;;;;;;5068436;28;20180;-67
2022/05/09 09:56:38;;;;;;;8.57;2.88;;;;;;;;;;5070088;28;20608;-67
2022/05/09 09:59:20;;;;;;;10.90;2.45;;;;;;;;;;5069796;28;20287;-67
2022/05/09 10:02:02;;;;;;;8.52;2.33;;;;;;;;;;5059518;28;20220;-67
2022/05/09 10:04:29;;;;;;;6.95;1.98;;;;;;;;;;5067348;28;20227;-67
2022/05/09 10:07:08;;;;;;;7.45;2.20;;;;;;;;;;5069875;28;20263;-67
2022/05/09 10:09:46;;;;;;;8.68;2.25;;;;;;;;;;5069131;28;20236;-66
2022/05/09 10:12:25;;;;;;;10.70;2.65;;;;;;;;;;5067567;28;20196;-66
2022/05/09 10:14:53;;;;;;;8.85;2.10;;;;;;;;;;5064116;28;20467;-66
2022/05/09 10:17:26;;;;;;;7.50;2.40;;;;;;;;;;5068032;28;20172;-69
2022/05/09 10:19:53;;;;;;;8.05;2.35;;;;;;;;;;5067320;28;20187;-68
2022/05/09 10:25:19;;;;;;;5.93;2.17;;;;;;;;;;5065919;28;20223;-69
2022/05/09 10:27:45;;;;;;;6.22;1.80;;;;;;;;;;5068637;28;20184;-68
2022/05/09 10:30:17;;;;;;;7.22;1.90;;;;;;;;;;5068921;28;20188;-67
2022/05/09 10:32:53;;;;;;;7.30;2.08;;;;;;;;;;5068999;28;20188;-68
2022/05/09 10:35:25;;;;;;;7.40;1.80;;;;;;;;;;5068476;28;20326;-67
2022/05/09 10:37:57;;;;;;;6.88;2.05;;;;;;;;;;5063162;28;20193;-67
2022/05/09 10:40:48;;;;;;;7.70;1.85;;;;;;;;;;5064363;28;20524;-66
2022/05/09 10:43:37;;;;;;;6.85;1.83;;;;;;;;;;5062916;28;20220;-66
2022/05/09 10:46:13;;;;;;;7.65;1.88;;;;;;;;;;5050718;28;20170;-67
2022/05/09 10:48:49;;;;;;;5.25;2.35;;;;;;;;;;5068753;28;20306;-68
2022/05/09 10:51:26;;;;;;;6.68;2.00;;;;;;;;;;5057116;28;20188;-66
2022/05/09 10:53:55;;;;;;;9.13;2.20;;;;;;;;;;5063279;28;20200;-67
2022/05/09 10:56:28;;;;;;;8.25;2.38;;;;;;;;;;5069187;28;20188;-67
2022/05/09 10:59:00;;;;;;;7.65;2.50;;;;;;;;;;5066897;28;20204;-67
2022/05/09 11:01:51;;;;;;;7.90;2.25;;;;;;;;;;5069561;28;20647;-67
2022/05/09 11:04:18;;;;;;;5.22;2.65;;;;;;;;;;5066021;28;20185;-67
2022/05/09 11:07:16;;;;;;;12.70;2.17;;;;;;;;;;5067730;28;20230;-67
2022/05/09 11:09:50;;;;;;;6.55;2.40;;;;;;;;;;5067592;28;20239;-69
2022/05/09 11:12:54;;;;;;;6.88;2.60;;;;;;;;;;5067613;28;20177;-67
2022/05/09 11:15:45;;;;;;;7.25;2.67;;;;;;;;;;5064026;28;20547;-67
2022/05/09 11:18:46;;;;;;;7.40;2.05;;;;;;;;;;5068703;28;20271;-67
2022/05/09 11:21:42;;;;;;;8.75;2.65;;;;;;;;;;5057890;28;20193;-67
2022/05/09 11:24:26;;;;;;;6.55;2.20;;;;;;;;;;5064069;28;20192;-66
2022/05/09 11:27:00;;;;;;;8.75;2.42;;;;;;;;;;5067773;28;20514;-67
2022/05/09 11:30:01;;;;;;;8.60;2.35;;;;;;;;;;5066196;28;20215;-67
2022/05/09 11:32:36;;;;;;;6.78;2.25;;;;;;;;;;5067675;28;20200;-67
2022/05/09 11:35:08;;;;;;;8.13;2.50;;;;;;;;;;5063681;28;20180;-66
2022/05/09 11:38:11;;;;;;;4.28;2.42;;;;;;;;;;5056083;28;20181;-66
2022/05/09 11:40:45;;;;;;;9.20;2.58;;;;;;;;;;5053705;28;20188;-66
2022/05/09 11:43:37;;;;;;;4.22;2.10;;;;;;;;;;5060915;28;20182;-67
2022/05/09 11:46:14;;;;;;;4.57;2.55;;;;;;;;;;5065579;28;20199;-66
2022/05/09 11:49:17;;;;;;;7.50;2.35;;;;;;;;;;5059267;28;20219;-66
2022/05/09 11:51:54;;;;;;;6.82;2.40;;;;;;;;;;5059918;28;20204;-67
2022/05/09 11:54:34;;;;;;;5.68;2.22;;;;;;;;;;5063483;28;20254;-70
2022/05/09 11:57:01;;;;;;;5.05;1.95;;;;;;;;;;5066565;28;20704;-66
2022/05/09 11:59:31;;;;;;;4.38;1.95;;;;;;;;;;5067378;28;20268;-66
2022/05/09 12:02:05;;;;;;;5.60;2.47;;;;;;;;;;5066232;28;20297;-66
2022/05/09 12:04:34;;;;;;;10.88;2.47;;;;;;;;;;5066764;28;20176;-65
2022/05/09 12:07:00;;;;;;;6.70;2.42;;;;;;;;;;5081128;28;20184;-67
2022/05/09 12:10:03;;;;;;;7.30;2.30;;;;;;;;;;5065750;28;20243;-66
2022/05/09 12:12:37;;;;;;;7.97;2.60;;;;;;;;;;5050387;28;20192;-65
2022/05/09 12:15:15;;;;;;;4.88;2.25;;;;;;;;;;5066782;28;20184;-67
2022/05/09 12:18:09;;;;;;;6.50;2.53;;;;;;;;;;5059399;28;20192;-65
2022/05/09 12:20:37;;;;;;;8.95;3.05;;;;;;;;;;5058060;28;20185;-67
2022/05/09 12:23:09;;;;;;;5.20;2.63;;;;;;;;;;5064870;28;20181;-65
2022/05/09 12:25:35;;;;;;;8.98;2.88;;;;;;;;;;5063820;28;20265;-67
2022/05/09 12:28:18;;;;;;;5.75;2.70;;;;;;;;;;5063832;28;20640;-66
2022/05/09 12:30:50;;;;;;;6.53;2.70;;;;;;;;;;5063339;28;20205;-66
2022/05/09 12:33:19;;;;;;;4.70;2.03;;;;;;;;;;5065334;28;20200;-66
2022/05/09 12:35:45;;;;;;;6.18;2.50;;;;;;;;;;5065406;28;20255;-69
2022/05/09 12:38:12;;;;;;;9.18;2.90;;;;;;;;;;5063785;28;20342;-67
2022/05/09 12:40:38;;;;;;;6.80;2.45;;;;;;;;;;5063263;28;20548;-66
2022/05/09 12:43:04;;;;;;;5.13;2.20;;;;;;;;;;5065867;28;20177;-66
2022/05/09 12:45:31;;;;;;;9.15;2.58;;;;;;;;;;5064280;28;20189;-67
2022/05/09 12:47:57;;;;;;;5.75;2.60;;;;;;;;;;5065450;28;20207;-65
2022/05/09 12:50:27;;;;;;;8.80;2.53;;;;;;;;;;5064162;28;20505;-65
2022/05/09 12:52:57;;;;;;;7.88;2.90;;;;;;;;;;5065513;28;20196;-65
2022/05/09 12:55:55;;;;;;;9.35;3.13;;;;;;;;;;5065044;28;20205;-65
2022/05/09 12:58:33;;;;;;;6.75;2.65;;;;;;;;;;5059091;28;20193;-65
2022/05/09 13:01:07;;;;;;;6.32;2.55;;;;;;;;;;5065374;28;20611;-65
2022/05/09 13:03:41;;;;;;;8.35;3.20;;;;;;;;;;5065860;28;20677;-66
2022/05/09 13:06:16;;;;;;;8.35;3.15;;;;;;;;;;5061887;28;20271;-66
2022/05/09 13:08:41;;;;;;;6.30;2.58;;;;;;;;;;5079572;28;20228;-68
2022/05/09 13:11:17;;;;;;;7.93;2.90;;;;;;;;;;5064377;28;20218;-65
2022/05/09 13:14:10;;;;;;;5.07;2.58;;;;;;;;;;5064850;28;20196;-69
2022/05/09 13:16:39;;;;;;;7.05;2.30;;;;;;;;;;5066828;28;20184;-65
2022/05/09 13:19:06;;;;;;;9.23;2.88;;;;;;;;;;5068413;28;20561;-66
2022/05/09 13:21:39;;;;;;;6.13;2.83;;;;;;;;;;5065960;28;20185;-65
2022/05/09 13:24:13;;;;;;;6.57;2.53;;;;;;;;;;5067632;28;20613;-66
2022/05/09 13:26:49;;;;;;;9.02;2.55;;;;;;;;;;5065817;28;20192;-65
2022/05/09 13:29:23;;;;;;;9.43;2.53;;;;;;;;;;5069346;28;20183;-68
2022/05/09 13:31:48;;;;;;;5.78;2.25;;;;;;;;;;5064620;28;20232;-67
2022/05/09 13:34:32;;;;;;;4.88;2.38;;;;;;;;;;5066019;28;20270;-68
2022/05/09 13:37:00;;;;;;;9.23;1.90;;;;;;;;;;5067610;28;20226;-66
2022/05/09 13:39:39;;;;;;;6.70;1.60;;;;;;;;;;5069169;28;20188;-66
2022/05/09 13:42:33;;;;;;;5.43;1.90;;;;;;;;;;5066870;28;20195;-66
2022/05/09 13:45:10;;;;;;;4.40;2.50;;;;;;;;;;5066293;28;20196;-66
2022/05/09 13:47:36;;;;;;;5.10;2.17;;;;;;;;;;5067904;28;20500;-65
2022/05/09 13:50:03;;;;;;;7.32;2.20;;;;;;;;;;4360391;28;10000731;-67
2022/05/09 13:52:33;;;;;;;7.15;2.45;;;;;;;;;;5064975;28;20504;-67
2022/05/09 13:55:01;;;;;;;5.63;2.40;;;;;;;;;;5061372;28;20617;-66
2022/05/09 13:57:40;;;;;;;5.00;2.10;;;;;;;;;;5062976;28;20177;-66
2022/05/09 14:00:12;;;;;;;5.82;2.00;;;;;;;;;;5056662;28;20203;-66
2022/05/09 14:02:38;;;;;;;4.05;2.00;;;;;;;;;;5063201;28;20203;-66
2022/05/09 14:05:11;;;;;;;6.88;2.58;;;;;;;;;;5056222;28;20323;-66
2022/05/09 14:07:42;;;;;;;5.60;2.50;;;;;;;;;;5059569;28;20280;-66
2022/05/09 14:10:23;;;;;;;7.38;2.40;;;;;;;;;;5059388;28;20901;-65
2022/05/09 14:12:48;;;;;;;7.03;2.35;;;;;;;;;;5059837;28;20212;-66
2022/05/09 14:15:17;;;;;;;6.53;2.30;;;;;;;;;;5057920;28;20257;-65
2022/05/09 14:17:54;;;;;;;5.50;1.90;;;;;;;;;;5064457;28;20376;-65
2022/05/09 14:20:28;;;;;;;6.68;2.28;;;;;;;;;;5058730;28;20207;-66
2022/05/09 14:22:53;;;;;;;5.18;1.92;;;;;;;;;;5062195;28;20542;-67
2022/05/09 14:30:48;;;;;;;6.68;2.10;;;;;;;;;;5063352;28;20287;-68
2022/05/09 14:33:36;;;;;;;9.05;2.17;;;;;;;;;;5055660;28;20218;-65
2022/05/09 14:36:25;;;;;;;6.53;2.70;;;;;;;;;;5060980;28;20224;-65
2022/05/09 14:38:57;;;;;;;5.75;1.92;;;;;;;;;;5062005;28;20207;-65
2022/05/09 14:41:37;;;;;;;3.00;1.83;;;;;;;;;;5063803;28;20185;-65
2022/05/09 14:44:10;;;;;;;5.30;1.80;;;;;;;;;;5058268;28;20195;-65
2022/05/09 14:46:52;;;;;;;5.35;2.20;;;;;;;;;;5064621;28;20616;-65
2022/05/09 14:49:18;;;;;;;5.82;2.20;;;;;;;;;;5057645;28;20185;-65
2022/05/09 14:51:58;;;;;;;7.90;2.33;;;;;;;;;;5064464;28;20207;-65
2022/05/09 14:54:26;;;;;;;4.50;2.28;;;;;;;;;;5065000;28;20197;-65
2022/05/09 14:59:44;;;;;;;4.13;1.85;;;;;;;;;;5066599;28;20214;-66
2022/05/09 15:02:18;;;;;;;6.30;2.45;;;;;;;;;;5064690;28;20202;-65
2022/05/09 15:04:44;;;;;;;5.40;2.50;;;;;;;;;;5060239;28;20469;-66
2022/05/09 15:07:10;;;;;;;6.50;2.13;;;;;;;;;;5061627;28;20203;-66
2022/05/09 15:09:35;;;;;;;7.90;2.25;;;;;;;;;;5055321;28;20574;-66
2022/05/09 15:12:01;;;;;;;9.50;2.17;;;;;;;;;;5057064;28;20208;-67
2022/05/09 15:14:33;;;;;;;4.40;2.13;;;;;;;;;;5062713;28;20184;-66
2022/05/09 15:17:00;;;;;;;6.70;2.58;;;;;;;;;;5061874;28;20188;-66